createdAt,value
2023-01-11T00:00:39.154Z,85.22
2023-01-11T00:03:06.281Z,85.80
2023-01-11T00:05:40.277Z,85.31
2023-01-11T00:08:07.886Z,85.95
2023-01-11T00:10:34.520Z,85.48
2023-01-11T00:13:01.319Z,85.16
2023-01-11T00:15:27.885Z,84.50
2023-01-11T00:17:54.269Z,85.19
2023-01-11T00:20:20.640Z,84.94
2023-01-11T00:22:47.063Z,84.73
2023-01-11T00:25:13.390Z,84.77
2023-01-11T00:27:39.783Z,84.52
2023-01-11T00:30:06.573Z,84.68
2023-01-11T00:32:33.115Z,84.35
2023-01-11T00:34:59.446Z,84.94
2023-01-11T00:37:25.754Z,84.83
2023-01-11T00:39:52.413Z,84.84
2023-01-11T00:42:37.597Z,84.63
2023-01-11T00:45:22.764Z,84.20
2023-01-11T00:47:57.989Z,84.48
2023-01-11T00:50:25.810Z,84.98
2023-01-11T00:52:52.152Z,84.85
2023-01-11T00:55:18.759Z,83.57
2023-01-11T00:57:45.150Z,84.18
2023-01-11T01:00:12.070Z,83.78
2023-01-11T01:02:38.544Z,84.19
2023-01-11T01:05:05.308Z,83.80
2023-01-11T01:07:31.663Z,84.29
2023-01-11T01:09:58.130Z,83.91
2023-01-11T01:12:43.045Z,83.33
2023-01-11T01:15:10.247Z,84.38
2023-01-11T01:17:36.670Z,84.93
2023-01-11T01:20:03.591Z,84.59
2023-01-11T01:22:30.164Z,85.90
2023-01-11T01:24:56.483Z,85.22
2023-01-11T01:27:22.819Z,85.48
2023-01-11T01:29:49.198Z,85.62
2023-01-11T01:32:15.546Z,85.72
2023-01-11T01:34:41.885Z,85.85
2023-01-11T01:37:11.055Z,84.96
2023-01-11T01:39:37.825Z,86.15
2023-01-11T01:42:05.871Z,86.27
2023-01-11T01:44:50.728Z,86.30
2023-01-11T01:47:17.460Z,86.50
2023-01-11T01:49:45.056Z,86.22
2023-01-11T01:52:12.103Z,86.16
2023-01-11T01:54:41.188Z,85.63
2023-01-11T01:57:27.781Z,86.13
2023-01-11T01:59:57.196Z,85.73
2023-01-11T02:02:25.063Z,85.68
2023-01-11T02:04:53.091Z,85.75
2023-01-11T02:07:39.637Z,85.30
2023-01-11T02:10:10.468Z,85.06
2023-01-11T02:12:43.420Z,85.91
2023-01-11T02:15:11.424Z,86.52
2023-01-11T02:17:37.823Z,86.29
2023-01-11T02:20:13.731Z,86.44
2023-01-11T02:23:06.194Z,86.71
2023-01-11T02:25:54.012Z,87.12
2023-01-11T02:28:44.330Z,87.02
2023-01-11T02:31:24.245Z,87.83
2023-01-11T02:34:02.825Z,88.96
2023-01-11T02:36:44.259Z,89.14
2023-01-11T02:39:30.897Z,89.62
2023-01-11T02:42:45.442Z,90.33
2023-01-11T02:45:30.819Z,90.33
2023-01-11T02:48:02.537Z,90.70
2023-01-11T02:50:42.385Z,90.70
2023-01-11T02:53:25.815Z,90.32
2023-01-11T02:55:55.882Z,90.51
2023-01-11T02:58:23.405Z,90.45
2023-01-11T03:00:50.480Z,90.35
2023-01-11T03:03:24.706Z,90.75
2023-01-11T03:05:55.141Z,90.22
2023-01-11T03:08:30.860Z,90.14
2023-01-11T03:11:03.677Z,89.95
2023-01-11T03:13:55.208Z,90.45
2023-01-11T03:16:25.089Z,90.23
2023-01-11T03:19:22.764Z,90.02
2023-01-11T03:22:08.273Z,90.77
2023-01-11T03:24:55.669Z,90.94
2023-01-11T03:27:45.848Z,90.65
2023-01-11T03:30:21.853Z,90.36
2023-01-11T03:33:02.083Z,90.15
2023-01-11T03:35:37.653Z,89.67
2023-01-11T03:38:27.674Z,89.14
2023-01-11T03:41:05.917Z,90.19
2023-01-11T03:43:35.468Z,89.61
2023-01-11T03:46:07.162Z,89.73
2023-01-11T03:48:40.088Z,89.61
2023-01-11T03:51:09.907Z,90.38
2023-01-11T03:53:38.077Z,90.37
2023-01-11T03:56:08.119Z,90.54
2023-01-11T03:58:34.649Z,91.27
2023-01-11T04:01:01.567Z,91.12
2023-01-11T04:03:28.248Z,91.32
2023-01-11T04:05:57.948Z,91.50
2023-01-11T04:08:24.314Z,91.61
2023-01-11T04:10:50.710Z,91.67
2023-01-11T04:13:17.099Z,91.66
2023-01-11T04:15:43.537Z,91.34
2023-01-11T04:18:09.905Z,91.86
2023-01-11T04:20:38.838Z,91.82
2023-01-11T04:23:05.712Z,91.56
2023-01-11T04:25:32.044Z,91.95
2023-01-11T04:27:58.582Z,92.29
2023-01-11T04:30:25.334Z,91.94
2023-01-11T04:32:51.820Z,92.32
2023-01-11T04:35:18.348Z,91.66
2023-01-11T04:37:44.744Z,92.76
2023-01-11T04:40:11.644Z,92.46
2023-01-11T04:42:38.049Z,92.35
2023-01-11T04:45:06.031Z,92.44
2023-01-11T04:47:32.590Z,92.35
2023-01-11T04:49:58.992Z,91.62
2023-01-11T04:52:25.332Z,91.21
2023-01-11T04:54:53.813Z,91.68
2023-01-11T04:57:20.435Z,91.08
2023-01-11T04:59:46.796Z,90.75
2023-01-11T05:02:15.227Z,91.41
2023-01-11T05:04:41.580Z,90.91
2023-01-11T05:07:08.681Z,91.09
2023-01-11T05:09:35.625Z,91.56
2023-01-11T05:12:02.044Z,91.50
2023-01-11T05:14:28.438Z,91.12
2023-01-11T05:16:54.781Z,91.38
2023-01-11T05:19:21.272Z,91.07
2023-01-11T05:21:47.645Z,91.56
2023-01-11T05:24:15.437Z,91.39
2023-01-11T05:26:42.987Z,91.66
2023-01-11T05:29:11.663Z,91.69
2023-01-11T05:31:39.647Z,90.64
2023-01-11T05:34:09.299Z,90.48
2023-01-11T05:36:36.061Z,91.26
2023-01-11T05:39:04.543Z,90.82
2023-01-11T05:41:30.988Z,91.41
2023-01-11T05:44:15.922Z,91.50
2023-01-11T05:46:43.300Z,91.32
2023-01-11T05:49:10.743Z,91.49
2023-01-11T05:51:38.145Z,91.85
2023-01-11T05:54:06.624Z,91.78
2023-01-11T05:56:33.123Z,91.83
2023-01-11T05:58:59.482Z,91.83
2023-01-11T06:01:25.892Z,91.77
2023-01-11T06:03:52.443Z,91.91
2023-01-11T06:06:21.602Z,91.91
2023-01-11T06:08:48.217Z,91.74
2023-01-11T06:11:15.181Z,92.87
2023-01-11T06:13:41.711Z,92.82
2023-01-11T06:16:13.840Z,92.51
2023-01-11T06:18:45.754Z,93.36
2023-01-11T06:21:12.721Z,93.50
2023-01-11T06:23:41.513Z,92.87
2023-01-11T06:26:09.776Z,92.72
2023-01-11T06:28:36.895Z,93.57
2023-01-11T06:31:04.128Z,93.19
2023-01-11T06:33:31.089Z,93.13
2023-01-11T06:35:57.523Z,93.49
2023-01-11T06:38:25.447Z,92.84
2023-01-11T06:40:55.758Z,93.30
2023-01-11T06:43:23.182Z,92.45
2023-01-11T06:45:50.039Z,93.36
2023-01-11T06:48:20.389Z,93.43
2023-01-11T06:50:54.335Z,93.02
2023-01-11T06:53:21.404Z,93.70
2023-01-11T06:55:52.672Z,93.81
2023-01-11T06:58:19.619Z,93.31
2023-01-11T07:00:46.401Z,93.44
2023-01-11T07:03:15.648Z,93.56
2023-01-11T07:05:43.954Z,92.91
2023-01-11T07:08:10.479Z,93.62
2023-01-11T07:10:37.445Z,93.58
2023-01-11T07:13:04.044Z,93.45
2023-01-11T07:15:30.621Z,93.46
2023-01-11T07:17:59.997Z,93.04
2023-01-11T07:20:26.904Z,93.93
2023-01-11T07:22:58.079Z,93.42
2023-01-11T07:25:25.636Z,93.17
2023-01-11T07:27:59.074Z,93.62
2023-01-11T07:30:27.411Z,93.12
2023-01-11T07:32:54.153Z,93.84
2023-01-11T07:35:21.070Z,93.72
2023-01-11T07:37:47.502Z,93.46
2023-01-11T07:40:16.163Z,94.06
2023-01-11T07:43:05.549Z,93.42
2023-01-11T07:45:44.778Z,93.64
2023-01-11T07:48:12.005Z,93.88
2023-01-11T07:50:40.476Z,93.81
2023-01-11T07:53:08.577Z,94.02
2023-01-11T07:55:35.340Z,94.37
2023-01-11T07:58:03.028Z,93.84
2023-01-11T08:00:29.586Z,94.28
2023-01-11T08:02:56.175Z,93.99
2023-01-11T08:05:23.703Z,94.35
2023-01-11T08:07:50.300Z,94.82
2023-01-11T08:10:16.960Z,94.04
2023-01-11T08:13:05.675Z,94.43
2023-01-11T08:15:33.160Z,94.02
2023-01-11T08:18:00.799Z,94.41
2023-01-11T08:20:27.293Z,94.62
2023-01-11T08:22:53.803Z,94.72
2023-01-11T08:25:20.600Z,94.31
2023-01-11T08:27:46.967Z,95.14
2023-01-11T08:30:13.710Z,95.21
2023-01-11T08:32:40.063Z,94.34
2023-01-11T08:35:06.679Z,94.84
2023-01-11T08:37:33.073Z,94.18
2023-01-11T08:39:59.518Z,94.50
2023-01-11T08:42:26.834Z,94.81
2023-01-11T08:44:53.188Z,95.02
2023-01-11T08:47:19.489Z,94.96
2023-01-11T08:49:46.030Z,94.71
2023-01-11T08:52:13.873Z,95.01
2023-01-11T08:54:40.576Z,94.91
2023-01-11T08:57:06.978Z,95.31
2023-01-11T08:59:33.371Z,95.29
2023-01-11T09:01:59.945Z,95.27
2023-01-11T09:04:26.471Z,94.75
2023-01-11T09:06:53.434Z,95.25
2023-01-11T09:09:20.140Z,95.38
2023-01-11T09:11:56.496Z,95.25
2023-01-11T09:14:24.498Z,94.48
2023-01-11T09:16:51.646Z,94.55
2023-01-11T09:19:18.075Z,94.96
2023-01-11T09:21:46.119Z,94.79
2023-01-11T09:24:13.233Z,94.76
2023-01-11T09:26:41.383Z,94.41
2023-01-11T09:29:08.188Z,95.10
2023-01-11T09:31:34.716Z,94.81
2023-01-11T09:34:01.271Z,94.58
2023-01-11T09:36:27.996Z,94.36
2023-01-11T09:38:57.307Z,95.01
2023-01-11T09:41:27.165Z,94.89
2023-01-11T09:44:02.353Z,95.00
2023-01-11T09:46:29.146Z,95.08
2023-01-11T09:48:59.395Z,95.61
2023-01-11T09:51:33.921Z,94.84
2023-01-11T09:54:02.115Z,95.41
2023-01-11T09:56:35.118Z,95.01
2023-01-11T09:59:20.115Z,95.41
2023-01-11T10:02:17.997Z,94.63
2023-01-11T10:04:53.575Z,94.81
2023-01-11T10:18:23.801Z,94.86
2023-01-11T10:18:29.554Z,95.15
2023-01-11T10:20:30.798Z,94.70
2023-01-11T10:23:21.584Z,95.61
2023-01-11T10:25:51.507Z,95.21
2023-01-11T10:28:22.949Z,94.94
2023-01-11T10:30:58.202Z,94.72
2023-01-11T10:33:42.934Z,95.11
2023-01-11T10:36:42.378Z,94.53
2023-01-11T10:39:24.570Z,94.85
2023-01-11T10:42:02.295Z,95.34
2023-01-11T10:44:37.839Z,94.87
2023-01-11T10:47:10.703Z,94.96
2023-01-11T10:49:59.417Z,94.91
2023-01-11T10:52:35.197Z,94.72
2023-01-11T10:55:12.768Z,95.30
2023-01-11T10:58:00.379Z,94.81
2023-01-11T11:00:56.997Z,94.52
2023-01-11T11:03:34.067Z,94.60
2023-01-11T11:06:10.736Z,94.97
2023-01-11T11:08:53.411Z,94.56
2023-01-11T11:11:31.988Z,95.04
2023-01-11T11:14:04.383Z,93.99
2023-01-11T11:16:53.291Z,94.30
2023-01-11T11:19:22.280Z,94.27
2023-01-11T11:21:49.596Z,93.80
2023-01-11T11:24:33.153Z,93.61
2023-01-11T11:27:19.709Z,94.08
2023-01-11T11:29:54.280Z,93.92
2023-01-11T11:32:29.392Z,93.99
2023-01-11T11:34:55.954Z,93.91
2023-01-11T11:37:27.585Z,93.75
2023-01-11T11:39:54.296Z,94.03
2023-01-11T11:42:22.112Z,93.85
2023-01-11T11:45:07.164Z,94.16
2023-01-11T11:47:33.601Z,94.01
2023-01-11T11:50:43.234Z,93.74
2023-01-11T11:53:33.480Z,93.53
2023-01-11T11:56:06.444Z,93.08
2023-01-11T11:58:32.904Z,93.55
2023-01-11T12:00:59.528Z,93.38
2023-01-11T12:03:30.439Z,93.55
2023-01-11T12:06:02.051Z,93.90
2023-01-11T12:08:31.745Z,93.58
2023-01-11T12:11:02.910Z,93.37
2023-01-11T12:13:37.616Z,93.72
2023-01-11T12:16:07.302Z,93.50
2023-01-11T12:18:36.540Z,93.64
2023-01-11T12:21:21.406Z,93.56
2023-01-11T12:23:48.711Z,93.30
2023-01-11T12:27:01.769Z,92.93
2023-01-11T12:29:48.776Z,92.41
2023-01-11T12:32:17.828Z,91.99
2023-01-11T12:35:13.878Z,91.78
2023-01-11T12:38:06.457Z,92.41
2023-01-11T12:41:01.406Z,91.92
2023-01-11T12:43:51.248Z,91.53
2023-01-11T12:46:24.720Z,91.44
2023-01-11T12:49:16.100Z,90.56
2023-01-11T12:51:59.704Z,91.25
2023-01-11T12:54:38.423Z,90.98
2023-01-11T12:57:14.437Z,90.66
2023-01-11T13:00:15.125Z,90.90
2023-01-11T13:03:03.103Z,90.77
2023-01-11T13:05:54.233Z,90.33
2023-01-11T13:08:29.622Z,90.43
2023-01-11T13:11:37.264Z,90.45
2023-01-11T13:14:22.565Z,90.41
2023-01-11T13:16:48.814Z,90.16
2023-01-11T13:19:19.288Z,90.18
2023-01-11T13:21:53.180Z,89.98
2023-01-11T13:24:32.880Z,89.78
2023-01-11T13:27:04.939Z,89.70
2023-01-11T13:29:34.265Z,89.74
2023-01-11T13:32:03.739Z,88.99
2023-01-11T13:34:36.138Z,89.11
2023-01-11T13:37:14.077Z,88.06
2023-01-11T13:39:45.656Z,88.65
2023-01-11T13:42:24.274Z,88.02
2023-01-11T13:45:01.828Z,87.54
2023-01-11T13:47:35.447Z,88.13
2023-01-11T13:50:10.669Z,88.04
2023-01-11T13:52:58.619Z,86.91
2023-01-11T13:55:35.157Z,87.38
2023-01-11T13:58:14.592Z,87.33
2023-01-11T14:00:41.809Z,87.22
2023-01-11T14:03:26.376Z,87.52
2023-01-11T14:06:02.519Z,86.59
2023-01-11T14:09:19.241Z,86.85
2023-01-11T14:11:48.581Z,86.45
2023-01-11T14:14:34.956Z,86.24
2023-01-11T14:17:17.720Z,85.51
2023-01-11T14:19:53.030Z,86.82
2023-01-11T14:22:29.009Z,87.25
2023-01-11T14:24:59.466Z,85.83
2023-01-11T14:27:35.621Z,85.45
2023-01-11T14:30:39.847Z,85.60
2023-01-11T14:33:26.725Z,86.60
2023-01-11T14:36:02.283Z,84.63
2023-01-11T14:38:39.485Z,84.22
2023-01-11T14:41:08.837Z,83.48
2023-01-11T14:43:44.040Z,81.44
2023-01-11T14:46:51.153Z,81.67
2023-01-11T14:49:27.495Z,81.71
2023-01-11T14:52:00.847Z,82.46
2023-01-11T14:54:37.199Z,82.88
2023-01-11T14:57:03.637Z,82.52
2023-01-11T14:59:30.090Z,82.30
2023-01-11T15:02:02.611Z,81.73
2023-01-11T15:04:30.590Z,79.51
2023-01-11T15:06:57.077Z,78.29
2023-01-11T15:09:46.643Z,78.10
2023-01-11T15:12:14.653Z,77.55
2023-01-11T15:14:48.181Z,76.16
2023-01-11T15:17:38.278Z,77.14
2023-01-11T15:20:11.667Z,75.62
2023-01-11T15:22:38.345Z,75.74
2023-01-11T15:25:19.363Z,73.91
2023-01-11T15:27:45.988Z,72.51
2023-01-11T15:30:30.724Z,73.90
2023-01-11T15:33:19.155Z,74.34
2023-01-11T15:35:57.710Z,73.29
2023-01-11T15:38:50.642Z,74.33
2023-01-11T15:41:37.585Z,73.05
2023-01-11T15:44:19.377Z,74.03
2023-01-11T15:47:01.714Z,74.54
2023-01-11T15:50:10.234Z,74.22
2023-01-11T15:53:31.025Z,74.89
2023-01-11T15:56:06.075Z,73.64
2023-01-11T15:59:09.349Z,74.67
2023-01-11T16:02:06.090Z,75.28
2023-01-11T16:04:56.577Z,75.23
2023-01-11T16:07:42.116Z,75.27
2023-01-11T16:10:30.902Z,75.28
2023-01-11T16:13:08.987Z,75.32
2023-01-11T16:15:43.614Z,76.03
2023-01-11T16:18:14.559Z,75.61
2023-01-11T16:20:43.842Z,75.65
2023-01-11T16:23:18.493Z,75.95
2023-01-11T16:25:46.369Z,74.92
2023-01-11T16:28:13.903Z,75.40
2023-01-11T16:30:41.091Z,77.07
2023-01-11T16:33:26.602Z,76.35
2023-01-11T16:36:18.169Z,77.82
2023-01-11T16:39:01.090Z,76.90
2023-01-11T16:41:32.654Z,77.01
2023-01-11T16:44:02.917Z,76.59
2023-01-11T16:47:06.436Z,76.75
2023-01-11T16:49:33.085Z,77.24
2023-01-11T16:52:02.349Z,77.17
2023-01-11T16:54:31.043Z,76.73
2023-01-11T16:56:58.303Z,76.23
2023-01-11T16:59:34.487Z,77.12
2023-01-11T17:02:05.306Z,77.19
2023-01-11T17:04:34.197Z,77.02
2023-01-11T17:07:23.547Z,77.24
2023-01-11T17:09:50.368Z,78.50
2023-01-11T17:12:20.425Z,78.60
2023-01-11T17:14:57.897Z,77.54
2023-01-11T17:17:25.251Z,78.49
2023-01-11T17:19:59.474Z,79.08
2023-01-11T17:22:33.950Z,79.42
2023-01-11T17:25:12.379Z,80.31
2023-01-11T17:27:40.615Z,79.81
2023-01-11T17:30:36.599Z,80.27
2023-01-11T17:33:03.248Z,81.26
2023-01-11T17:35:33.494Z,81.53
2023-01-11T17:38:03.438Z,81.75
2023-01-11T17:40:32.929Z,81.13
2023-01-11T17:43:30.415Z,80.85
2023-01-11T17:45:58.179Z,81.90
2023-01-11T17:48:26.912Z,81.66
2023-01-11T17:50:56.623Z,82.62
2023-01-11T17:53:32.147Z,82.64
2023-01-11T17:56:00.840Z,82.42
2023-01-11T17:58:28.948Z,82.41
2023-01-11T18:01:18.221Z,81.85
2023-01-11T18:03:51.504Z,82.00
2023-01-11T18:06:24.463Z,82.96
2023-01-11T18:08:55.114Z,81.95
2023-01-11T18:11:33.752Z,83.12
2023-01-11T18:14:03.537Z,83.64
2023-01-11T18:16:29.982Z,82.88
2023-01-11T18:18:56.644Z,82.00
2023-01-11T18:21:26.007Z,82.55
2023-01-11T18:24:10.832Z,82.62
2023-01-11T18:26:39.111Z,82.58
2023-01-11T18:29:05.731Z,82.87
2023-01-11T18:31:32.392Z,82.94
2023-01-11T18:33:58.959Z,83.60
2023-01-11T18:36:29.797Z,82.77
2023-01-11T18:38:56.443Z,82.79
2023-01-11T18:41:43.206Z,82.51
2023-01-11T18:44:11.852Z,81.59
2023-01-11T18:46:38.166Z,82.10
2023-01-11T18:49:04.581Z,81.88
2023-01-11T18:51:36.278Z,82.25
2023-01-11T18:54:02.653Z,81.93
2023-01-11T18:56:29.007Z,82.10
2023-01-11T18:58:55.389Z,82.43
2023-01-11T19:01:21.845Z,82.75
2023-01-11T19:03:48.851Z,83.31
2023-01-11T19:06:19.226Z,83.42
2023-01-11T19:08:45.616Z,83.40
2023-01-11T19:11:13.792Z,82.68
2023-01-11T19:13:40.293Z,82.26
2023-01-11T19:16:07.420Z,83.06
2023-01-11T19:18:35.336Z,82.59
2023-01-11T19:21:03.162Z,82.77
2023-01-11T19:23:29.576Z,82.96
2023-01-11T19:25:57.782Z,82.01
2023-01-11T19:28:24.329Z,82.01
2023-01-11T19:30:50.753Z,82.04
2023-01-11T19:33:17.200Z,82.37
2023-01-11T19:35:44.255Z,82.04
2023-01-11T19:38:10.711Z,83.41
2023-01-11T19:40:37.052Z,82.79
2023-01-11T19:43:03.424Z,83.17
2023-01-11T19:45:29.763Z,83.97
2023-01-11T19:47:56.141Z,84.02
2023-01-11T19:50:22.542Z,85.07
2023-01-11T19:52:49.371Z,84.69
2023-01-11T19:55:16.697Z,84.76
2023-01-11T19:57:43.054Z,84.65
2023-01-11T20:00:11.637Z,84.68
2023-01-11T20:02:39.377Z,85.52
2023-01-11T20:05:06.354Z,84.97
2023-01-11T20:07:33.411Z,85.59
2023-01-11T20:09:59.844Z,85.88
2023-01-11T20:12:26.325Z,85.47
2023-01-11T20:14:56.325Z,85.55
2023-01-11T20:17:23.944Z,86.07
2023-01-11T20:19:54.340Z,85.97
2023-01-11T20:22:24.485Z,86.34
2023-01-11T20:24:50.972Z,86.41
2023-01-11T20:27:17.538Z,86.26
2023-01-11T20:29:44.159Z,86.30
2023-01-11T20:32:34.883Z,86.18
2023-01-11T20:34:57.142Z,85.90
2023-01-11T20:37:23.473Z,85.64
2023-01-11T20:39:50.069Z,85.78
2023-01-11T20:42:16.452Z,85.71
2023-01-11T20:44:42.825Z,86.08
2023-01-11T20:47:09.229Z,85.68
2023-01-11T20:49:35.624Z,86.04
2023-01-11T20:52:02.088Z,85.30
2023-01-11T20:54:28.495Z,85.29
2023-01-11T20:56:57.798Z,85.38
2023-01-11T20:59:24.835Z,85.98
2023-01-11T21:01:51.246Z,85.37
2023-01-11T21:04:18.536Z,85.17
2023-01-11T21:06:47.798Z,85.38
2023-01-11T21:09:15.795Z,85.46
2023-01-11T21:11:42.554Z,84.69
2023-01-11T21:14:11.864Z,85.34
2023-01-11T21:16:42.656Z,84.81
2023-01-11T21:19:11.669Z,84.75
2023-01-11T21:21:38.078Z,84.47
2023-01-11T21:24:05.040Z,84.32
2023-01-11T21:26:32.481Z,84.38
2023-01-11T21:29:00.996Z,84.17
2023-01-11T21:31:28.896Z,84.42
2023-01-11T21:33:55.400Z,84.31
2023-01-11T21:36:23.523Z,84.22
2023-01-11T21:38:50.075Z,84.55
2023-01-11T21:41:18.781Z,84.81
2023-01-11T21:43:46.525Z,84.68
2023-01-11T21:46:13.385Z,85.20
2023-01-11T21:48:39.756Z,85.50
2023-01-11T21:51:09.949Z,85.18
2023-01-11T21:53:36.759Z,84.96
2023-01-11T21:56:04.858Z,84.82
2023-01-11T21:58:31.219Z,85.88
2023-01-11T22:00:57.678Z,84.84
2023-01-11T22:03:28.242Z,85.22
2023-01-11T22:06:01.729Z,85.14
2023-01-11T22:08:28.317Z,85.59
2023-01-11T22:11:02.199Z,85.62
2023-01-11T22:13:29.685Z,85.92
2023-01-11T22:16:04.034Z,86.22
2023-01-11T22:18:30.339Z,86.00
2023-01-11T22:20:57.284Z,86.34
2023-01-11T22:23:23.858Z,85.89
2023-01-11T22:25:50.279Z,86.12
2023-01-11T22:28:17.226Z,85.64
2023-01-11T22:30:43.607Z,85.83
2023-01-11T22:33:10.032Z,85.54
2023-01-11T22:35:36.435Z,85.97
2023-01-11T22:38:02.833Z,85.52
2023-01-11T22:40:29.212Z,86.71
2023-01-11T22:42:55.598Z,85.70
2023-01-11T22:45:22.009Z,85.71
2023-01-11T22:47:48.648Z,86.20
2023-01-11T22:50:15.336Z,85.70
2023-01-11T22:52:41.676Z,86.05
2023-01-11T22:55:08.454Z,86.11
2023-01-11T22:57:35.043Z,85.44
2023-01-11T23:00:01.750Z,86.14
2023-01-11T23:02:29.008Z,85.30
2023-01-11T23:04:55.351Z,85.60
2023-01-11T23:07:21.683Z,85.21
2023-01-11T23:09:48.056Z,85.59
2023-01-11T23:12:33.036Z,84.55
2023-01-11T23:14:59.481Z,85.10
2023-01-11T23:17:25.856Z,84.46
2023-01-11T23:19:52.203Z,84.72
2023-01-11T23:22:18.570Z,83.87
2023-01-11T23:24:44.966Z,83.61
2023-01-11T23:27:11.461Z,82.95
2023-01-11T23:29:37.932Z,82.60
2023-01-11T23:32:04.539Z,81.75
2023-01-11T23:34:30.948Z,81.94
2023-01-11T23:36:57.371Z,82.28
2023-01-11T23:39:23.898Z,81.50
2023-01-11T23:42:08.906Z,82.27
2023-01-11T23:44:35.381Z,81.80
2023-01-11T23:47:20.376Z,81.29
2023-01-11T23:49:50.810Z,81.23
2023-01-11T23:52:18.592Z,80.52
2023-01-11T23:54:45.603Z,81.37
2023-01-11T23:57:13.379Z,81.16
2023-01-11T23:59:41.078Z,81.46
